sensor_id;sensor_type;location;lat;lon;timestamp;P1;durP1;ratioP1;P2;durP2;ratioP2
5273;SDS011;56254;50.956;7.010;2023-02-04T00:01:07;40.03;;;4.03;;
5273;SDS011;56254;50.956;7.010;2023-02-04T00:03:32;9.00;;;2.20;;
5273;SDS011;56254;50.956;7.010;2023-02-04T00:05:59;41.87;;;3.20;;
5273;SDS011;56254;50.956;7.010;2023-02-04T00:08:25;29.93;;;4.13;;
5273;SDS011;56254;50.956;7.010;2023-02-04T00:10:51;31.03;;;5.33;;
5273;SDS011;56254;50.956;7.010;2023-02-04T00:13:16;27.83;;;5.50;;
5273;SDS011;56254;50.956;7.010;2023-02-04T00:15:42;28.10;;;5.20;;
5273;SDS011;56254;50.956;7.010;2023-02-04T00:18:08;37.03;;;4.50;;
5273;SDS011;56254;50.956;7.010;2023-02-04T00:20:34;28.83;;;4.30;;
5273;SDS011;56254;50.956;7.010;2023-02-04T00:23:00;33.07;;;5.20;;
5273;SDS011;56254;50.956;7.010;2023-02-04T00:25:25;28.07;;;5.27;;
5273;SDS011;56254;50.956;7.010;2023-02-04T00:27:51;32.90;;;5.00;;
5273;SDS011;56254;50.956;7.010;2023-02-04T00:30:17;34.30;;;4.53;;
5273;SDS011;56254;50.956;7.010;2023-02-04T00:32:43;31.83;;;4.30;;
5273;SDS011;56254;50.956;7.010;2023-02-04T00:35:09;33.07;;;4.40;;
5273;SDS011;56254;50.956;7.010;2023-02-04T00:37:35;17.67;;;4.00;;
5273;SDS011;56254;50.956;7.010;2023-02-04T00:40:00;32.23;;;4.70;;
5273;SDS011;56254;50.956;7.010;2023-02-04T00:42:26;28.07;;;4.33;;
5273;SDS011;56254;50.956;7.010;2023-02-04T00:44:52;28.83;;;5.10;;
5273;SDS011;56254;50.956;7.010;2023-02-04T00:47:18;29.60;;;3.90;;
5273;SDS011;56254;50.956;7.010;2023-02-04T00:49:44;23.67;;;5.33;;
5273;SDS011;56254;50.956;7.010;2023-02-04T00:52:09;34.40;;;5.93;;
5273;SDS011;56254;50.956;7.010;2023-02-04T00:54:35;31.73;;;4.83;;
5273;SDS011;56254;50.956;7.010;2023-02-04T00:57:01;42.67;;;4.60;;
5273;SDS011;56254;50.956;7.010;2023-02-04T00:59:27;44.77;;;5.33;;
5273;SDS011;56254;50.956;7.010;2023-02-04T01:01:53;34.07;;;4.73;;
5273;SDS011;56254;50.956;7.010;2023-02-04T01:04:19;25.10;;;3.53;;
5273;SDS011;56254;50.956;7.010;2023-02-04T01:06:45;18.63;;;4.23;;
5273;SDS011;56254;50.956;7.010;2023-02-04T01:09:11;39.30;;;6.30;;
5273;SDS011;56254;50.956;7.010;2023-02-04T01:11:36;28.40;;;5.00;;
5273;SDS011;56254;50.956;7.010;2023-02-04T01:14:04;25.93;;;4.43;;
5273;SDS011;56254;50.956;7.010;2023-02-04T01:16:30;42.07;;;5.73;;
5273;SDS011;56254;50.956;7.010;2023-02-04T01:18:56;39.70;;;5.40;;
5273;SDS011;56254;50.956;7.010;2023-02-04T01:21:22;27.40;;;4.67;;
5273;SDS011;56254;50.956;7.010;2023-02-04T01:23:47;27.23;;;4.40;;
5273;SDS011;56254;50.956;7.010;2023-02-04T01:26:14;30.70;;;4.47;;
5273;SDS011;56254;50.956;7.010;2023-02-04T01:28:40;30.40;;;4.73;;
5273;SDS011;56254;50.956;7.010;2023-02-04T01:31:06;21.93;;;4.40;;
5273;SDS011;56254;50.956;7.010;2023-02-04T01:33:32;18.73;;;3.50;;
5273;SDS011;56254;50.956;7.010;2023-02-04T01:35:58;30.37;;;3.90;;
5273;SDS011;56254;50.956;7.010;2023-02-04T01:38:23;22.83;;;4.03;;
5273;SDS011;56254;50.956;7.010;2023-02-04T01:40:49;73.63;;;7.07;;
5273;SDS011;56254;50.956;7.010;2023-02-04T01:43:15;46.77;;;5.27;;
5273;SDS011;56254;50.956;7.010;2023-02-04T01:45:42;40.43;;;4.80;;
5273;SDS011;56254;50.956;7.010;2023-02-04T01:48:09;29.33;;;4.70;;
5273;SDS011;56254;50.956;7.010;2023-02-04T01:50:37;35.43;;;3.97;;
5273;SDS011;56254;50.956;7.010;2023-02-04T01:53:03;34.10;;;4.87;;
5273;SDS011;56254;50.956;7.010;2023-02-04T01:55:29;54.37;;;5.00;;
5273;SDS011;56254;50.956;7.010;2023-02-04T01:57:57;33.73;;;4.87;;
5273;SDS011;56254;50.956;7.010;2023-02-04T02:00:27;27.07;;;3.33;;
5273;SDS011;56254;50.956;7.010;2023-02-04T02:02:54;42.90;;;5.40;;
5273;SDS011;56254;50.956;7.010;2023-02-04T02:05:22;42.60;;;5.00;;
5273;SDS011;56254;50.956;7.010;2023-02-04T02:07:55;19.10;;;3.23;;
5273;SDS011;56254;50.956;7.010;2023-02-04T02:10:23;25.93;;;4.83;;
5273;SDS011;56254;50.956;7.010;2023-02-04T02:12:49;47.27;;;4.93;;
5273;SDS011;56254;50.956;7.010;2023-02-04T02:15:15;31.37;;;3.97;;
5273;SDS011;56254;50.956;7.010;2023-02-04T02:17:43;22.00;;;4.50;;
5273;SDS011;56254;50.956;7.010;2023-02-04T02:20:10;37.47;;;5.37;;
5273;SDS011;56254;50.956;7.010;2023-02-04T02:25:42;27.13;;;4.23;;
5273;SDS011;56254;50.956;7.010;2023-02-04T02:28:12;28.13;;;4.67;;
5273;SDS011;56254;50.956;7.010;2023-02-04T02:30:41;25.10;;;4.30;;
5273;SDS011;56254;50.956;7.010;2023-02-04T02:33:14;37.43;;;4.53;;
5273;SDS011;56254;50.956;7.010;2023-02-04T02:35:41;38.77;;;4.73;;
5273;SDS011;56254;50.956;7.010;2023-02-04T02:38:12;24.40;;;5.23;;
5273;SDS011;56254;50.956;7.010;2023-02-04T02:40:42;30.73;;;3.83;;
5273;SDS011;56254;50.956;7.010;2023-02-04T02:43:11;44.80;;;4.70;;
5273;SDS011;56254;50.956;7.010;2023-02-04T02:45:42;40.87;;;4.50;;
5273;SDS011;56254;50.956;7.010;2023-02-04T02:48:08;30.53;;;4.70;;
5273;SDS011;56254;50.956;7.010;2023-02-04T02:50:35;29.30;;;4.53;;
5273;SDS011;56254;50.956;7.010;2023-02-04T02:53:02;34.33;;;4.37;;
5273;SDS011;56254;50.956;7.010;2023-02-04T02:55:28;40.70;;;4.13;;
5273;SDS011;56254;50.956;7.010;2023-02-04T02:57:55;26.43;;;4.87;;
5273;SDS011;56254;50.956;7.010;2023-02-04T03:05:17;31.97;;;3.87;;
5273;SDS011;56254;50.956;7.010;2023-02-04T03:07:43;39.07;;;5.03;;
5273;SDS011;56254;50.956;7.010;2023-02-04T03:10:09;33.13;;;5.30;;
5273;SDS011;56254;50.956;7.010;2023-02-04T03:12:35;31.30;;;5.27;;
5273;SDS011;56254;50.956;7.010;2023-02-04T03:15:02;40.73;;;4.03;;
5273;SDS011;56254;50.956;7.010;2023-02-04T03:17:28;50.60;;;5.83;;
5273;SDS011;56254;50.956;7.010;2023-02-04T03:19:54;31.43;;;4.47;;
5273;SDS011;56254;50.956;7.010;2023-02-04T03:22:20;42.87;;;4.33;;
5273;SDS011;56254;50.956;7.010;2023-02-04T03:24:46;33.30;;;3.93;;
5273;SDS011;56254;50.956;7.010;2023-02-04T03:27:13;15.67;;;3.50;;
5273;SDS011;56254;50.956;7.010;2023-02-04T03:29:42;33.97;;;4.73;;
5273;SDS011;56254;50.956;7.010;2023-02-04T03:32:09;28.30;;;5.10;;
5273;SDS011;56254;50.956;7.010;2023-02-04T03:34:35;28.13;;;4.30;;
5273;SDS011;56254;50.956;7.010;2023-02-04T03:37:00;27.30;;;3.67;;
5273;SDS011;56254;50.956;7.010;2023-02-04T03:39:26;22.83;;;3.67;;
5273;SDS011;56254;50.956;7.010;2023-02-04T03:41:52;28.67;;;4.20;;
5273;SDS011;56254;50.956;7.010;2023-02-04T03:44:18;26.53;;;3.13;;
5273;SDS011;56254;50.956;7.010;2023-02-04T03:46:45;44.30;;;4.73;;
5273;SDS011;56254;50.956;7.010;2023-02-04T03:49:11;32.37;;;4.57;;
5273;SDS011;56254;50.956;7.010;2023-02-04T03:51:37;19.10;;;4.30;;
5273;SDS011;56254;50.956;7.010;2023-02-04T03:54:02;30.50;;;3.80;;
5273;SDS011;56254;50.956;7.010;2023-02-04T03:56:29;17.97;;;3.67;;
5273;SDS011;56254;50.956;7.010;2023-02-04T03:58:56;28.87;;;3.73;;
5273;SDS011;56254;50.956;7.010;2023-02-04T04:01:21;29.67;;;3.73;;
5273;SDS011;56254;50.956;7.010;2023-02-04T04:03:47;23.67;;;4.23;;
5273;SDS011;56254;50.956;7.010;2023-02-04T04:06:14;16.87;;;2.93;;
5273;SDS011;56254;50.956;7.010;2023-02-04T04:08:39;23.87;;;4.40;;
5273;SDS011;56254;50.956;7.010;2023-02-04T04:11:05;35.03;;;4.67;;
5273;SDS011;56254;50.956;7.010;2023-02-04T04:13:31;31.03;;;3.80;;
5273;SDS011;56254;50.956;7.010;2023-02-04T04:15:57;36.90;;;3.13;;
5273;SDS011;56254;50.956;7.010;2023-02-04T04:18:22;53.07;;;4.20;;
5273;SDS011;56254;50.956;7.010;2023-02-04T04:20:48;36.33;;;4.27;;
5273;SDS011;56254;50.956;7.010;2023-02-04T04:23:14;33.97;;;4.03;;
5273;SDS011;56254;50.956;7.010;2023-02-04T04:25:39;26.90;;;2.90;;
5273;SDS011;56254;50.956;7.010;2023-02-04T04:28:05;13.27;;;3.70;;
5273;SDS011;56254;50.956;7.010;2023-02-04T04:30:31;25.00;;;4.33;;
5273;SDS011;56254;50.956;7.010;2023-02-04T04:32:56;27.53;;;3.50;;
5273;SDS011;56254;50.956;7.010;2023-02-04T04:35:22;16.17;;;3.70;;
5273;SDS011;56254;50.956;7.010;2023-02-04T04:37:48;24.70;;;2.50;;
5273;SDS011;56254;50.956;7.010;2023-02-04T04:40:13;22.33;;;3.00;;
5273;SDS011;56254;50.956;7.010;2023-02-04T04:45:05;40.60;;;3.80;;
5273;SDS011;56254;50.956;7.010;2023-02-04T04:47:33;31.83;;;3.73;;
5273;SDS011;56254;50.956;7.010;2023-02-04T04:49:59;25.50;;;4.73;;
5273;SDS011;56254;50.956;7.010;2023-02-04T04:52:24;32.83;;;4.90;;
5273;SDS011;56254;50.956;7.010;2023-02-04T04:54:54;28.07;;;3.70;;
5273;SDS011;56254;50.956;7.010;2023-02-04T04:57:20;17.93;;;3.53;;
5273;SDS011;56254;50.956;7.010;2023-02-04T04:59:45;36.80;;;4.90;;
5273;SDS011;56254;50.956;7.010;2023-02-04T05:02:11;51.53;;;7.07;;
5273;SDS011;56254;50.956;7.010;2023-02-04T05:04:37;30.53;;;3.27;;
5273;SDS011;56254;50.956;7.010;2023-02-04T05:07:02;36.97;;;4.33;;
5273;SDS011;56254;50.956;7.010;2023-02-04T05:09:28;21.83;;;4.03;;
5273;SDS011;56254;50.956;7.010;2023-02-04T05:11:54;34.23;;;4.73;;
5273;SDS011;56254;50.956;7.010;2023-02-04T05:14:20;23.00;;;4.60;;
5273;SDS011;56254;50.956;7.010;2023-02-04T05:16:46;39.77;;;3.30;;
5273;SDS011;56254;50.956;7.010;2023-02-04T05:19:11;33.13;;;4.50;;
5273;SDS011;56254;50.956;7.010;2023-02-04T05:21:37;35.70;;;4.73;;
5273;SDS011;56254;50.956;7.010;2023-02-04T05:24:03;19.73;;;3.70;;
5273;SDS011;56254;50.956;7.010;2023-02-04T05:26:30;24.67;;;3.77;;
5273;SDS011;56254;50.956;7.010;2023-02-04T05:28:57;43.10;;;4.23;;
5273;SDS011;56254;50.956;7.010;2023-02-04T05:31:24;29.13;;;4.50;;
5273;SDS011;56254;50.956;7.010;2023-02-04T05:33:50;50.90;;;4.93;;
5273;SDS011;56254;50.956;7.010;2023-02-04T05:36:15;36.83;;;4.27;;
5273;SDS011;56254;50.956;7.010;2023-02-04T05:38:42;33.60;;;4.57;;
5273;SDS011;56254;50.956;7.010;2023-02-04T05:41:08;24.07;;;3.90;;
5273;SDS011;56254;50.956;7.010;2023-02-04T05:43:34;32.83;;;3.70;;
5273;SDS011;56254;50.956;7.010;2023-02-04T05:46:01;20.83;;;4.00;;
5273;SDS011;56254;50.956;7.010;2023-02-04T05:48:27;41.53;;;4.50;;
5273;SDS011;56254;50.956;7.010;2023-02-04T05:50:53;22.87;;;4.10;;
5273;SDS011;56254;50.956;7.010;2023-02-04T05:53:18;20.20;;;3.13;;
5273;SDS011;56254;50.956;7.010;2023-02-04T05:55:44;29.70;;;3.70;;
5273;SDS011;56254;50.956;7.010;2023-02-04T05:58:10;39.60;;;4.87;;
5273;SDS011;56254;50.956;7.010;2023-02-04T06:00:35;32.37;;;3.80;;
5273;SDS011;56254;50.956;7.010;2023-02-04T06:03:01;28.97;;;4.23;;
5273;SDS011;56254;50.956;7.010;2023-02-04T06:05:27;28.13;;;3.80;;
5273;SDS011;56254;50.956;7.010;2023-02-04T06:07:53;18.63;;;4.30;;
5273;SDS011;56254;50.956;7.010;2023-02-04T06:10:18;13.50;;;3.70;;
5273;SDS011;56254;50.956;7.010;2023-02-04T06:12:45;16.97;;;4.30;;
5273;SDS011;56254;50.956;7.010;2023-02-04T06:15:12;68.00;;;5.73;;
5273;SDS011;56254;50.956;7.010;2023-02-04T06:17:38;30.73;;;4.83;;
5273;SDS011;56254;50.956;7.010;2023-02-04T06:20:04;41.37;;;6.17;;
5273;SDS011;56254;50.956;7.010;2023-02-04T06:22:30;28.47;;;4.47;;
5273;SDS011;56254;50.956;7.010;2023-02-04T06:24:56;28.50;;;5.10;;
5273;SDS011;56254;50.956;7.010;2023-02-04T06:27:22;29.73;;;4.13;;
5273;SDS011;56254;50.956;7.010;2023-02-04T06:29:51;21.33;;;3.47;;
5273;SDS011;56254;50.956;7.010;2023-02-04T06:32:18;32.33;;;4.97;;
5273;SDS011;56254;50.956;7.010;2023-02-04T06:34:45;31.73;;;4.97;;
5273;SDS011;56254;50.956;7.010;2023-02-04T06:37:11;22.40;;;4.03;;
5273;SDS011;56254;50.956;7.010;2023-02-04T06:39:37;39.80;;;4.47;;
5273;SDS011;56254;50.956;7.010;2023-02-04T06:42:04;20.23;;;4.17;;
5273;SDS011;56254;50.956;7.010;2023-02-04T06:44:30;35.30;;;4.40;;
5273;SDS011;56254;50.956;7.010;2023-02-04T06:46:55;45.60;;;5.53;;
5273;SDS011;56254;50.956;7.010;2023-02-04T06:49:21;18.13;;;4.00;;
5273;SDS011;56254;50.956;7.010;2023-02-04T06:51:50;40.73;;;4.33;;
5273;SDS011;56254;50.956;7.010;2023-02-04T06:54:16;36.73;;;5.17;;
5273;SDS011;56254;50.956;7.010;2023-02-04T06:56:42;24.93;;;5.07;;
5273;SDS011;56254;50.956;7.010;2023-02-04T06:59:08;40.20;;;5.07;;
5273;SDS011;56254;50.956;7.010;2023-02-04T07:01:34;34.83;;;5.23;;
5273;SDS011;56254;50.956;7.010;2023-02-04T07:04:00;32.23;;;5.00;;
5273;SDS011;56254;50.956;7.010;2023-02-04T07:06:26;33.77;;;5.27;;
5273;SDS011;56254;50.956;7.010;2023-02-04T07:08:52;29.00;;;4.40;;
5273;SDS011;56254;50.956;7.010;2023-02-04T07:11:18;31.23;;;5.40;;
5273;SDS011;56254;50.956;7.010;2023-02-04T07:13:43;44.37;;;5.47;;
5273;SDS011;56254;50.956;7.010;2023-02-04T07:16:09;45.00;;;5.00;;
5273;SDS011;56254;50.956;7.010;2023-02-04T07:18:35;42.80;;;5.00;;
5273;SDS011;56254;50.956;7.010;2023-02-04T07:21:00;38.73;;;5.30;;
5273;SDS011;56254;50.956;7.010;2023-02-04T07:23:26;44.43;;;5.50;;
5273;SDS011;56254;50.956;7.010;2023-02-04T07:25:52;49.80;;;6.00;;
5273;SDS011;56254;50.956;7.010;2023-02-04T07:31:14;28.53;;;4.50;;
5273;SDS011;56254;50.956;7.010;2023-02-04T07:33:40;30.70;;;5.00;;
5273;SDS011;56254;50.956;7.010;2023-02-04T07:36:06;31.67;;;5.13;;
5273;SDS011;56254;50.956;7.010;2023-02-04T07:38:32;33.77;;;5.30;;
5273;SDS011;56254;50.956;7.010;2023-02-04T07:40:58;29.37;;;5.87;;
5273;SDS011;56254;50.956;7.010;2023-02-04T07:43:24;41.77;;;5.37;;
5273;SDS011;56254;50.956;7.010;2023-02-04T07:45:50;20.87;;;4.63;;
5273;SDS011;56254;50.956;7.010;2023-02-04T07:48:15;30.23;;;4.63;;
5273;SDS011;56254;50.956;7.010;2023-02-04T07:50:41;31.57;;;6.47;;
5273;SDS011;56254;50.956;7.010;2023-02-04T07:53:07;30.63;;;6.10;;
5273;SDS011;56254;50.956;7.010;2023-02-04T07:55:33;29.67;;;7.30;;
5273;SDS011;56254;50.956;7.010;2023-02-04T07:57:58;44.50;;;6.87;;
5273;SDS011;56254;50.956;7.010;2023-02-04T08:00:24;24.83;;;5.23;;
5273;SDS011;56254;50.956;7.010;2023-02-04T08:02:50;50.73;;;7.50;;
5273;SDS011;56254;50.956;7.010;2023-02-04T08:05:16;40.50;;;6.40;;
5273;SDS011;56254;50.956;7.010;2023-02-04T08:07:42;30.53;;;6.17;;
5273;SDS011;56254;50.956;7.010;2023-02-04T08:10:08;27.67;;;4.70;;
5273;SDS011;56254;50.956;7.010;2023-02-04T08:12:35;28.80;;;5.20;;
5273;SDS011;56254;50.956;7.010;2023-02-04T08:15:01;37.17;;;5.00;;
5273;SDS011;56254;50.956;7.010;2023-02-04T08:17:27;53.53;;;7.90;;
5273;SDS011;56254;50.956;7.010;2023-02-04T08:19:53;39.60;;;5.47;;
5273;SDS011;56254;50.956;7.010;2023-02-04T08:22:19;39.93;;;6.17;;
5273;SDS011;56254;50.956;7.010;2023-02-04T08:24:44;28.97;;;6.63;;
5273;SDS011;56254;50.956;7.010;2023-02-04T08:27:10;55.27;;;7.93;;
5273;SDS011;56254;50.956;7.010;2023-02-04T08:29:36;25.40;;;5.53;;
5273;SDS011;56254;50.956;7.010;2023-02-04T08:32:02;30.77;;;5.37;;
5273;SDS011;56254;50.956;7.010;2023-02-04T08:34:28;36.10;;;5.37;;
5273;SDS011;56254;50.956;7.010;2023-02-04T08:36:54;46.40;;;6.87;;
5273;SDS011;56254;50.956;7.010;2023-02-04T08:39:20;27.87;;;5.53;;
5273;SDS011;56254;50.956;7.010;2023-02-04T08:42:04;46.67;;;8.67;;
5273;SDS011;56254;50.956;7.010;2023-02-04T08:47:14;40.60;;;5.50;;
5273;SDS011;56254;50.956;7.010;2023-02-04T08:49:39;30.70;;;6.63;;
5273;SDS011;56254;50.956;7.010;2023-02-04T08:52:06;50.70;;;6.97;;
5273;SDS011;56254;50.956;7.010;2023-02-04T08:54:32;46.03;;;7.23;;
5273;SDS011;56254;50.956;7.010;2023-02-04T08:56:59;53.23;;;7.00;;
5273;SDS011;56254;50.956;7.010;2023-02-04T08:59:25;38.50;;;6.47;;
5273;SDS011;56254;50.956;7.010;2023-02-04T09:01:52;52.73;;;8.93;;
5273;SDS011;56254;50.956;7.010;2023-02-04T09:04:18;51.40;;;7.33;;
5273;SDS011;56254;50.956;7.010;2023-02-04T09:06:45;23.10;;;5.83;;
5273;SDS011;56254;50.956;7.010;2023-02-04T09:09:12;27.67;;;4.50;;
5273;SDS011;56254;50.956;7.010;2023-02-04T09:11:38;27.67;;;5.87;;
5273;SDS011;56254;50.956;7.010;2023-02-04T09:14:04;32.50;;;6.17;;
5273;SDS011;56254;50.956;7.010;2023-02-04T09:16:30;36.47;;;5.40;;
5273;SDS011;56254;50.956;7.010;2023-02-04T09:18:55;37.10;;;8.20;;
5273;SDS011;56254;50.956;7.010;2023-02-04T09:21:23;47.40;;;7.87;;
5273;SDS011;56254;50.956;7.010;2023-02-04T09:23:49;40.67;;;7.27;;
5273;SDS011;56254;50.956;7.010;2023-02-04T09:26:15;34.23;;;6.37;;
5273;SDS011;56254;50.956;7.010;2023-02-04T09:28:41;40.77;;;8.27;;
5273;SDS011;56254;50.956;7.010;2023-02-04T09:31:07;42.47;;;8.43;;
5273;SDS011;56254;50.956;7.010;2023-02-04T09:33:33;44.00;;;8.17;;
5273;SDS011;56254;50.956;7.010;2023-02-04T09:35:59;49.10;;;8.37;;
5273;SDS011;56254;50.956;7.010;2023-02-04T09:38:25;27.80;;;6.37;;
5273;SDS011;56254;50.956;7.010;2023-02-04T09:41:05;29.67;;;6.53;;
5273;SDS011;56254;50.956;7.010;2023-02-04T09:43:39;31.27;;;7.40;;
5273;SDS011;56254;50.956;7.010;2023-02-04T09:46:28;54.20;;;8.57;;
5273;SDS011;56254;50.956;7.010;2023-02-04T09:48:54;39.17;;;7.60;;
5273;SDS011;56254;50.956;7.010;2023-02-04T09:51:24;49.17;;;8.27;;
5273;SDS011;56254;50.956;7.010;2023-02-04T09:53:54;37.00;;;8.00;;
5273;SDS011;56254;50.956;7.010;2023-02-04T09:56:29;45.43;;;7.80;;
5273;SDS011;56254;50.956;7.010;2023-02-04T09:58:55;41.67;;;8.13;;
5273;SDS011;56254;50.956;7.010;2023-02-04T10:04:27;47.77;;;9.20;;
5273;SDS011;56254;50.956;7.010;2023-02-04T10:06:54;41.47;;;7.07;;
5273;SDS011;56254;50.956;7.010;2023-02-04T10:12:11;49.90;;;7.40;;
5273;SDS011;56254;50.956;7.010;2023-02-04T10:14:37;56.20;;;8.90;;
5273;SDS011;56254;50.956;7.010;2023-02-04T10:19:49;35.33;;;9.10;;
5273;SDS011;56254;50.956;7.010;2023-02-04T10:22:27;59.30;;;11.07;;
5273;SDS011;56254;50.956;7.010;2023-02-04T10:24:52;42.97;;;9.37;;
5273;SDS011;56254;50.956;7.010;2023-02-04T10:27:27;50.10;;;9.30;;
5273;SDS011;56254;50.956;7.010;2023-02-04T10:29:56;68.40;;;10.30;;
5273;SDS011;56254;50.956;7.010;2023-02-04T10:32:30;50.13;;;9.13;;
5273;SDS011;56254;50.956;7.010;2023-02-04T10:38:03;51.83;;;12.07;;
5273;SDS011;56254;50.956;7.010;2023-02-04T10:40:34;42.57;;;12.23;;
5273;SDS011;56254;50.956;7.010;2023-02-04T10:46:03;58.13;;;11.10;;
5273;SDS011;56254;50.956;7.010;2023-02-04T10:48:29;42.50;;;11.43;;
5273;SDS011;56254;50.956;7.010;2023-02-04T10:51:21;36.90;;;10.17;;
5273;SDS011;56254;50.956;7.010;2023-02-04T10:53:46;43.33;;;11.30;;
5273;SDS011;56254;50.956;7.010;2023-02-04T10:59:23;61.03;;;10.33;;
5273;SDS011;56254;50.956;7.010;2023-02-04T11:01:56;44.17;;;11.37;;
5273;SDS011;56254;50.956;7.010;2023-02-04T11:07:14;49.43;;;10.70;;
5273;SDS011;56254;50.956;7.010;2023-02-04T11:09:43;56.00;;;12.17;;
5273;SDS011;56254;50.956;7.010;2023-02-04T11:18:12;61.67;;;13.03;;
5273;SDS011;56254;50.956;7.010;2023-02-04T11:21:20;42.63;;;12.60;;
5273;SDS011;56254;50.956;7.010;2023-02-04T11:24:24;42.07;;;13.60;;
5273;SDS011;56254;50.956;7.010;2023-02-04T11:30:21;51.67;;;14.70;;
5273;SDS011;56254;50.956;7.010;2023-02-04T11:33:03;56.87;;;15.07;;
5273;SDS011;56254;50.956;7.010;2023-02-04T11:38:31;52.67;;;15.40;;
5273;SDS011;56254;50.956;7.010;2023-02-04T11:40:58;51.33;;;13.47;;
5273;SDS011;56254;50.956;7.010;2023-02-04T11:46:17;77.80;;;15.30;;
5273;SDS011;56254;50.956;7.010;2023-02-04T11:48:44;54.03;;;14.23;;
5273;SDS011;56254;50.956;7.010;2023-02-04T11:54:01;51.73;;;14.50;;
5273;SDS011;56254;50.956;7.010;2023-02-04T11:56:28;41.83;;;12.40;;
5273;SDS011;56254;50.956;7.010;2023-02-04T12:01:45;54.77;;;13.00;;
5273;SDS011;56254;50.956;7.010;2023-02-04T12:04:29;46.83;;;12.27;;
5273;SDS011;56254;50.956;7.010;2023-02-04T12:06:58;47.43;;;14.90;;
5273;SDS011;56254;50.956;7.010;2023-02-04T12:09:28;44.13;;;10.53;;
5273;SDS011;56254;50.956;7.010;2023-02-04T12:15:12;41.90;;;12.00;;
5273;SDS011;56254;50.956;7.010;2023-02-04T12:18:06;26.00;;;10.17;;
5273;SDS011;56254;50.956;7.010;2023-02-04T12:20:34;64.93;;;11.80;;
5273;SDS011;56254;50.956;7.010;2023-02-04T12:25:52;41.57;;;12.63;;
5273;SDS011;56254;50.956;7.010;2023-02-04T12:28:28;37.43;;;10.97;;
5273;SDS011;56254;50.956;7.010;2023-02-04T12:30:54;48.17;;;12.67;;
5273;SDS011;56254;50.956;7.010;2023-02-04T12:33:26;52.00;;;12.63;;
5273;SDS011;56254;50.956;7.010;2023-02-04T12:35:52;37.50;;;9.97;;
5273;SDS011;56254;50.956;7.010;2023-02-04T12:41:08;46.27;;;12.77;;
5273;SDS011;56254;50.956;7.010;2023-02-04T12:43:34;54.73;;;11.83;;
5273;SDS011;56254;50.956;7.010;2023-02-04T12:48:50;42.53;;;10.73;;
5273;SDS011;56254;50.956;7.010;2023-02-04T12:51:22;65.77;;;12.20;;
5273;SDS011;56254;50.956;7.010;2023-02-04T12:53:47;33.97;;;10.57;;
5273;SDS011;56254;50.956;7.010;2023-02-04T12:56:31;49.27;;;11.17;;
5273;SDS011;56254;50.956;7.010;2023-02-04T12:58:58;36.23;;;11.00;;
5273;SDS011;56254;50.956;7.010;2023-02-04T13:04:14;52.50;;;10.40;;
5273;SDS011;56254;50.956;7.010;2023-02-04T13:06:39;38.57;;;9.10;;
5273;SDS011;56254;50.956;7.010;2023-02-04T13:11:55;53.57;;;12.20;;
5273;SDS011;56254;50.956;7.010;2023-02-04T13:17:08;48.13;;;10.00;;
5273;SDS011;56254;50.956;7.010;2023-02-04T13:19:35;50.13;;;10.80;;
5273;SDS011;56254;50.956;7.010;2023-02-04T13:24:53;53.80;;;10.23;;
5273;SDS011;56254;50.956;7.010;2023-02-04T13:27:19;52.50;;;10.40;;
5273;SDS011;56254;50.956;7.010;2023-02-04T13:29:53;50.27;;;10.67;;
5273;SDS011;56254;50.956;7.010;2023-02-04T13:32:19;46.30;;;11.10;;
5273;SDS011;56254;50.956;7.010;2023-02-04T13:34:44;44.80;;;13.27;;
5273;SDS011;56254;50.956;7.010;2023-02-04T13:39:59;41.33;;;12.30;;
5273;SDS011;56254;50.956;7.010;2023-02-04T13:47:51;51.57;;;13.23;;
5273;SDS011;56254;50.956;7.010;2023-02-04T13:50:26;34.73;;;10.90;;
5273;SDS011;56254;50.956;7.010;2023-02-04T13:52:52;46.13;;;12.53;;
5273;SDS011;56254;50.956;7.010;2023-02-04T13:55:25;46.90;;;10.17;;
5273;SDS011;56254;50.956;7.010;2023-02-04T13:57:50;39.17;;;12.23;;
5273;SDS011;56254;50.956;7.010;2023-02-04T14:00:28;44.07;;;13.07;;
5273;SDS011;56254;50.956;7.010;2023-02-04T14:02:54;35.70;;;11.30;;
5273;SDS011;56254;50.956;7.010;2023-02-04T14:05:26;42.50;;;10.13;;
5273;SDS011;56254;50.956;7.010;2023-02-04T14:07:52;44.83;;;12.50;;
5273;SDS011;56254;50.956;7.010;2023-02-04T14:10:26;60.00;;;11.87;;
5273;SDS011;56254;50.956;7.010;2023-02-04T14:12:52;46.57;;;13.77;;
5273;SDS011;56254;50.956;7.010;2023-02-04T14:15:27;33.60;;;9.33;;
5273;SDS011;56254;50.956;7.010;2023-02-04T14:17:53;38.10;;;10.50;;
5273;SDS011;56254;50.956;7.010;2023-02-04T14:20:28;56.00;;;11.20;;
5273;SDS011;56254;50.956;7.010;2023-02-04T14:22:53;38.03;;;10.10;;
5273;SDS011;56254;50.956;7.010;2023-02-04T14:25:28;35.93;;;9.63;;
5273;SDS011;56254;50.956;7.010;2023-02-04T14:27:53;38.37;;;9.73;;
5273;SDS011;56254;50.956;7.010;2023-02-04T14:30:27;45.20;;;10.07;;
5273;SDS011;56254;50.956;7.010;2023-02-04T14:32:54;42.93;;;9.07;;
5273;SDS011;56254;50.956;7.010;2023-02-04T14:35:26;59.30;;;10.50;;
5273;SDS011;56254;50.956;7.010;2023-02-04T14:37:52;31.67;;;9.10;;
5273;SDS011;56254;50.956;7.010;2023-02-04T14:40:28;30.77;;;10.03;;
5273;SDS011;56254;50.956;7.010;2023-02-04T14:42:54;54.03;;;12.87;;
5273;SDS011;56254;50.956;7.010;2023-02-04T14:45:19;38.87;;;9.70;;
5273;SDS011;56254;50.956;7.010;2023-02-04T14:47:53;51.67;;;11.27;;
5273;SDS011;56254;50.956;7.010;2023-02-04T14:50:21;40.43;;;10.90;;
5273;SDS011;56254;50.956;7.010;2023-02-04T14:52:51;39.43;;;10.90;;
5273;SDS011;56254;50.956;7.010;2023-02-04T14:58:05;27.90;;;8.37;;
5273;SDS011;56254;50.956;7.010;2023-02-04T15:00:32;44.87;;;12.23;;
5273;SDS011;56254;50.956;7.010;2023-02-04T15:05:48;34.40;;;10.57;;
5273;SDS011;56254;50.956;7.010;2023-02-04T15:08:27;45.00;;;11.60;;
5273;SDS011;56254;50.956;7.010;2023-02-04T15:10:53;28.87;;;8.90;;
5273;SDS011;56254;50.956;7.010;2023-02-04T15:13:28;45.10;;;11.67;;
5273;SDS011;56254;50.956;7.010;2023-02-04T15:15:54;43.20;;;10.20;;
5273;SDS011;56254;50.956;7.010;2023-02-04T15:18:27;29.63;;;9.57;;
5273;SDS011;56254;50.956;7.010;2023-02-04T15:20:52;46.00;;;11.40;;
5273;SDS011;56254;50.956;7.010;2023-02-04T15:23:28;54.47;;;10.60;;
5273;SDS011;56254;50.956;7.010;2023-02-04T15:25:54;36.77;;;9.67;;
5273;SDS011;56254;50.956;7.010;2023-02-04T15:28:27;56.63;;;10.10;;
5273;SDS011;56254;50.956;7.010;2023-02-04T15:30:54;45.00;;;9.60;;
5273;SDS011;56254;50.956;7.010;2023-02-04T15:33:24;45.23;;;10.27;;
5273;SDS011;56254;50.956;7.010;2023-02-04T15:35:49;43.73;;;11.53;;
5273;SDS011;56254;50.956;7.010;2023-02-04T15:38:15;49.43;;;11.20;;
5273;SDS011;56254;50.956;7.010;2023-02-04T15:41:00;31.73;;;9.70;;
5273;SDS011;56254;50.956;7.010;2023-02-04T15:47:10;46.53;;;11.30;;
5273;SDS011;56254;50.956;7.010;2023-02-04T15:49:36;38.23;;;11.73;;
5273;SDS011;56254;50.956;7.010;2023-02-04T15:54:48;46.03;;;11.30;;
5273;SDS011;56254;50.956;7.010;2023-02-04T15:57:28;37.87;;;10.90;;
5273;SDS011;56254;50.956;7.010;2023-02-04T15:59:54;53.40;;;12.37;;
5273;SDS011;56254;50.956;7.010;2023-02-04T16:02:26;28.73;;;9.67;;
5273;SDS011;56254;50.956;7.010;2023-02-04T16:04:51;26.33;;;9.67;;
5273;SDS011;56254;50.956;7.010;2023-02-04T16:07:24;46.67;;;13.50;;
5273;SDS011;56254;50.956;7.010;2023-02-04T16:09:50;39.47;;;12.63;;
5273;SDS011;56254;50.956;7.010;2023-02-04T16:12:23;45.57;;;13.57;;
5273;SDS011;56254;50.956;7.010;2023-02-04T16:14:49;42.60;;;12.77;;
5273;SDS011;56254;50.956;7.010;2023-02-04T16:17:15;45.20;;;12.40;;
5273;SDS011;56254;50.956;7.010;2023-02-04T16:19:59;50.27;;;11.47;;
5273;SDS011;56254;50.956;7.010;2023-02-04T16:22:25;48.30;;;12.90;;
5273;SDS011;56254;50.956;7.010;2023-02-04T16:24:51;44.93;;;10.93;;
5273;SDS011;56254;50.956;7.010;2023-02-04T16:27:17;63.30;;;11.40;;